Time;durP1;ratioP1;P1;durP2;ratioP2;P2;SDS_P1;SDS_P2;PMS_P1;PMS_P2;Temp;Humidity;BMP_temperature;BMP_pressure;BME280_temperature;BME280_humidity;BME280_pressure;Samples;Min_cycle;Max_cycle;Signal;HPM_P1;HPM_P2
2022/12/01 04:03:20;;;;;;;24.63;15.88;;;;;;;3.93;66.48;100528.13;1087713;54;20031;-81
2022/12/01 04:04:21;;;;;;;26.95;17.70;;;;;;;3.94;66.87;100531.66;1087715;54;20027;-79
2022/12/01 04:05:29;;;;;;;22.83;15.82;;;;;;;3.95;66.86;100530.72;1087690;54;20030;-80
2022/12/01 04:06:30;;;;;;;22.63;15.45;;;;;;;4.02;66.67;100532.88;1087822;54;20039;-80
2022/12/01 04:07:34;;;;;;;24.80;16.27;;;;;;;4.05;66.55;100526.59;1088059;54;20765;-80
2022/12/01 04:08:37;;;;;;;24.92;17.27;;;;;;;4.10;66.81;100537.72;1088159;54;20038;-80
2022/12/01 04:09:42;;;;;;;22.20;14.38;;;;;;;4.17;66.66;100533.78;1088077;54;20034;-80
2022/12/01 04:10:44;;;;;;;22.58;15.40;;;;;;;4.20;66.53;100533.59;1088199;54;21066;-81
2022/12/01 04:13:05;;;;;;;21.05;13.70;;;;;;;4.27;66.44;100533.22;1088144;54;20040;-80
2022/12/01 04:14:06;;;;;;;22.60;15.95;;;;;;;4.24;66.06;100533.41;1088176;54;20112;-81
2022/12/01 04:15:14;;;;;;;23.73;15.65;;;;;;;4.26;66.50;100537.66;1088142;54;20042;-80
2022/12/01 04:16:15;;;;;;;18.98;13.45;;;;;;;4.33;66.38;100535.50;1089473;39;20764;-81
2022/12/01 04:17:19;;;;;;;21.73;14.25;;;;;;;4.37;66.33;100529.94;1088044;54;20023;-80
2022/12/01 04:18:26;;;;;;;22.70;14.55;;;;;;;4.41;66.36;100530.59;1087997;54;20057;-80
2022/12/01 04:19:28;;;;;;;19.48;13.32;;;;;;;4.42;66.26;100529.66;1088081;54;20031;-82
2022/12/01 04:20:33;;;;;;;19.80;13.35;;;;;;;4.48;66.04;100523.97;1088103;54;20015;-80
2022/12/01 04:21:34;;;;;;;21.08;14.05;;;;;;;4.47;65.84;100524.91;1092084;39;20229;-80
2022/12/01 04:22:40;;;;;;;23.45;15.98;;;;;;;4.40;65.59;100523.59;1088081;54;20030;-80
2022/12/01 04:25:00;;;;;;;21.40;14.93;;;;;;;4.29;66.10;100524.25;1088086;54;20018;-79
2022/12/01 04:26:04;;;;;;;21.83;15.65;;;;;;;4.35;65.96;100526.53;1088138;54;21018;-81
2022/12/01 04:27:08;;;;;;;22.45;14.93;;;;;;;4.34;65.91;100537.22;1088076;54;20030;-80
2022/12/01 04:28:21;;;;;;;22.27;15.25;;;;;;;4.31;65.86;100524.16;1088107;47;20035;-79
2022/12/01 04:29:25;;;;;;;25.38;14.63;;;;;;;4.35;66.09;100536.25;1088108;54;20014;-81
2022/12/01 04:30:26;;;;;;;20.95;14.65;;;;;;;4.33;66.15;100532.88;1088078;54;20765;-81
2022/12/01 04:31:31;;;;;;;21.73;15.48;;;;;;;4.22;66.37;100533.50;1088121;54;20041;-79
2022/12/01 04:32:37;;;;;;;22.60;15.20;;;;;;;4.22;66.19;100529.06;1088226;54;20019;-83
2022/12/01 04:33:43;;;;;;;24.85;16.38;;;;;;;4.28;65.88;100524.34;1088199;54;20098;-82
2022/12/01 04:34:45;;;;;;;21.88;14.48;;;;;;;4.35;65.92;100525.66;1089592;39;20929;-79
2022/12/01 04:35:58;;;;;;;21.98;15.25;;;;;;;4.31;65.86;100526.81;1088169;54;20034;-80
2022/12/01 04:36:59;;;;;;;22.38;15.48;;;;;;;4.31;65.92;100524.16;1088061;54;20038;-80
2022/12/01 04:38:03;;;;;;;22.77;15.48;;;;;;;4.31;66.02;100529.44;1088275;54;20034;-81
2022/12/01 04:39:05;;;;;;;19.33;14.27;;;;;;;4.39;65.87;100531.66;1087958;54;20026;-80
2022/12/01 04:40:18;;;;;;;21.10;14.40;;;;;;;4.27;65.63;100530.56;1088168;54;20019;-79
2022/12/01 04:41:19;;;;;;;19.85;13.27;;;;;;;4.34;66.16;100535.41;1088100;54;20038;-81
2022/12/01 04:42:24;;;;;;;21.13;15.10;;;;;;;4.38;65.92;100530.78;1088194;54;20058;-81
2022/12/01 04:43:25;;;;;;;22.17;15.02;;;;;;;4.27;65.78;100528.78;1088443;46;20030;-83
2022/12/01 04:44:30;;;;;;;22.95;15.45;;;;;;;4.21;66.05;100530.00;1088084;54;20015;-79
2022/12/01 04:45:32;;;;;;;22.17;15.48;;;;;;;4.21;66.10;100534.44;1087956;54;20022;-81
2022/12/01 04:46:36;;;;;;;21.92;15.60;;;;;;;4.16;66.27;100532.06;1088132;54;20030;-80
2022/12/01 04:47:38;;;;;;;21.05;14.68;;;;;;;4.19;66.12;100537.19;1088135;54;20014;-81
2022/12/01 04:48:51;;;;;;;21.50;14.30;;;;;;;4.16;66.34;100532.06;1088074;54;20031;-80
2022/12/01 04:49:53;;;;;;;18.95;13.48;;;;;;;4.25;66.22;100529.84;1088051;54;20037;-82
2022/12/01 04:50:57;;;;;;;19.40;12.98;;;;;;;4.34;66.04;100531.94;1088038;54;20034;-81
2022/12/01 04:51:59;;;;;;;18.20;12.23;;;;;;;4.44;66.08;100533.03;1089588;39;20930;-82
2022/12/01 04:53:03;;;;;;;19.33;13.30;;;;;;;4.44;65.94;100535.69;1088160;54;20087;-81
2022/12/01 04:54:04;;;;;;;18.02;12.48;;;;;;;4.49;66.01;100538.94;1087994;54;20041;-81
2022/12/01 04:55:18;;;;;;;19.92;13.55;;;;;;;4.56;65.60;100530.59;1088048;54;20022;-80
2022/12/01 04:56:19;;;;;;;20.15;13.05;;;;;;;4.51;65.95;100542.34;1088107;54;20094;-82
2022/12/01 04:57:25;;;;;;;20.80;14.32;;;;;;;4.44;65.93;100535.69;1092548;46;20062;-81
2022/12/01 04:58:26;;;;;;;21.30;14.73;;;;;;;4.36;66.12;100538.81;1087996;54;20026;-81
2022/12/01 04:59:30;;;;;;;22.25;15.07;;;;;;;4.33;66.26;100535.50;1087974;54;20019;-81
2022/12/01 05:00:32;;;;;;;22.83;14.25;;;;;;;4.28;66.12;100535.78;1090060;46;20788;-82
2022/12/01 05:01:37;;;;;;;23.58;15.13;;;;;;;4.31;66.29;100534.75;1087967;54;20750;-82
2022/12/01 05:02:42;;;;;;;22.98;15.23;;;;;;;4.27;66.36;100538.50;1087797;54;20035;-81
2022/12/01 05:03:48;;;;;;;20.13;14.38;;;;;;;4.24;67.10;100536.06;1087761;54;20032;-80
2022/12/01 05:04:52;;;;;;;21.48;14.38;;;;;;;4.26;66.86;100542.97;1088064;54;20037;-81
2022/12/01 05:06:09;;;;;;;22.33;14.52;;;;;;;4.16;66.47;100534.72;1087940;54;20054;-80
2022/12/01 05:07:11;;;;;;;21.92;15.38;;;;;;;4.20;66.76;100538.06;1088137;54;20042;-80
2022/12/01 05:08:16;;;;;;;22.52;15.75;;;;;;;4.20;66.95;100536.25;1088169;54;20015;-83
2022/12/01 05:09:21;;;;;;;20.88;14.50;;;;;;;4.21;66.99;100537.94;1088136;54;20030;-82
2022/12/01 05:10:24;;;;;;;20.15;13.90;;;;;;;4.20;66.97;100541.53;1089616;39;20718;-81
2022/12/01 05:11:30;;;;;;;21.13;15.07;;;;;;;4.20;66.90;100549.47;1093661;39;20828;-83
2022/12/01 05:12:31;;;;;;;20.83;14.40;;;;;;;4.28;66.76;100542.88;1088437;39;20716;-84
2022/12/01 05:13:36;;;;;;;21.33;14.85;;;;;;;4.19;66.81;100545.13;1088162;54;20014;-84
2022/12/01 05:14:40;;;;;;;20.98;14.13;;;;;;;4.16;66.70;100537.34;1087985;54;20027;-82
2022/12/01 05:15:43;;;;;;;21.27;14.32;;;;;;;4.21;66.85;100545.88;1088057;54;20037;-81
2022/12/01 05:16:47;;;;;;;20.05;13.68;;;;;;;4.28;66.75;100541.09;1091015;39;20330;-83
2022/12/01 05:17:48;;;;;;;19.65;13.07;;;;;;;4.37;66.65;100542.31;1087949;54;21232;-82
2022/12/01 05:20:55;;;;;;;17.75;12.43;;;;;;;4.40;66.41;100544.78;1088042;54;20118;-80
2022/12/01 05:21:39;;;;;;;23.52;16.58;;;;;;;4.22;66.88;100542.31;1088031;54;20034;-81
2022/12/01 05:22:40;;;;;;;23.00;15.63;;;;;;;4.23;66.95;100540.50;1088035;54;20031;-81
2022/12/01 05:23:46;;;;;;;21.02;15.18;;;;;;;4.20;67.04;100543.34;1088059;54;20033;-82
2022/12/01 05:24:47;;;;;;;21.52;15.35;;;;;;;4.19;67.14;100545.13;1088118;54;20066;-80
2022/12/01 05:25:53;;;;;;;20.77;13.93;;;;;;;4.23;67.23;100540.50;1088185;54;20030;-80
2022/12/01 05:26:57;;;;;;;24.70;16.20;;;;;;;4.20;67.10;100546.81;1088092;54;20039;-80
2022/12/01 05:27:59;;;;;;;21.73;15.63;;;;;;;4.12;67.21;100551.72;1088197;54;20034;-81
2022/12/01 05:29:03;;;;;;;22.48;15.25;;;;;;;4.09;67.13;100538.66;1088136;54;20313;-80
2022/12/01 05:30:06;;;;;;;20.40;15.15;;;;;;;4.14;67.52;100549.84;1088517;46;20034;-80
2022/12/01 05:31:11;;;;;;;23.02;15.77;;;;;;;4.10;67.58;100548.31;1088204;54;20102;-80
2022/12/01 05:32:12;;;;;;;22.95;14.77;;;;;;;4.07;67.49;100543.19;1088258;54;20038;-80
2022/12/01 05:33:16;;;;;;;21.77;14.45;;;;;;;4.14;67.49;100541.03;1088273;54;20026;-80
2022/12/01 05:34:18;;;;;;;20.83;14.57;;;;;;;4.18;67.28;100546.06;1088741;39;20650;-81
2022/12/01 05:35:25;;;;;;;22.38;16.00;;;;;;;4.19;67.52;100552.22;1088225;54;20849;-80
2022/12/01 05:36:29;;;;;;;21.30;14.15;;;;;;;4.21;67.54;100543.25;1091527;46;20022;-80
2022/12/01 05:37:55;;;;;;;23.92;16.05;;;;;;;4.18;67.55;100543.41;1093907;46;20034;-80
2022/12/01 05:38:59;;;;;;;19.90;13.68;;;;;;;4.21;67.58;100539.72;1088302;54;20093;-80
2022/12/01 05:40:01;;;;;;;21.05;15.43;;;;;;;4.16;67.26;100541.81;1088059;54;20065;-81
2022/12/01 05:41:05;;;;;;;21.95;15.35;;;;;;;4.15;67.58;100535.69;1089062;46;20031;-81
2022/12/01 05:42:09;;;;;;;22.35;14.18;;;;;;;4.17;67.34;100544.34;1088080;54;20041;-81
2022/12/01 05:43:13;;;;;;;24.48;15.93;;;;;;;4.17;67.42;100541.72;1088119;54;20030;-82
2022/12/01 05:44:15;;;;;;;22.60;15.27;;;;;;;4.19;67.33;100541.63;1088829;46;20034;-81
2022/12/01 05:45:19;;;;;;;21.35;14.93;;;;;;;4.23;67.46;100543.13;1087920;54;20034;-82
2022/12/01 05:46:21;;;;;;;22.15;14.43;;;;;;;4.17;67.52;100539.06;1088018;54;20045;-81
2022/12/01 05:47:25;;;;;;;20.80;14.63;;;;;;;4.17;67.43;100546.16;1088113;54;20034;-80
2022/12/01 05:48:28;;;;;;;20.10;13.52;;;;;;;4.21;67.60;100548.53;1088012;54;20054;-82
2022/12/01 05:49:32;;;;;;;20.48;13.05;;;;;;;4.21;67.46;100540.59;1088130;54;20030;-80
2022/12/01 05:50:39;;;;;;;20.50;14.18;;;;;;;4.24;67.41;100539.56;1087972;54;20034;-81
2022/12/01 05:51:45;;;;;;;21.05;13.32;;;;;;;4.21;67.37;100545.03;1087966;54;20031;-80
2022/12/01 05:52:46;;;;;;;20.33;14.32;;;;;;;4.21;67.56;100540.59;1088570;46;20023;-82
2022/12/01 05:53:51;;;;;;;19.98;13.50;;;;;;;4.22;67.46;100539.66;1088069;54;21155;-82
2022/12/01 05:54:52;;;;;;;20.13;13.13;;;;;;;4.16;67.74;100541.81;1087912;54;20019;-80
2022/12/01 05:55:57;;;;;;;20.60;14.07;;;;;;;4.19;67.63;100547.78;1088575;46;20035;-81
2022/12/01 05:56:58;;;;;;;18.95;13.25;;;;;;;4.22;67.23;100542.31;1087993;54;20057;-81
2022/12/01 05:58:06;;;;;;;19.73;13.38;;;;;;;4.24;67.25;100538.72;1088133;54;20037;-81
2022/12/01 05:59:10;;;;;;;24.02;13.88;;;;;;;4.28;67.55;100537.56;1087945;54;20050;-81
2022/12/01 06:00:13;;;;;;;19.85;13.40;;;;;;;4.28;67.35;100542.88;1088038;54;20096;-81
2022/12/01 06:01:17;;;;;;;20.40;14.32;;;;;;;4.27;67.49;100544.66;1087912;54;20046;-80
2022/12/01 06:02:20;;;;;;;21.13;14.57;;;;;;;4.19;67.39;100545.13;1088018;54;20157;-82
2022/12/01 06:03:24;;;;;;;20.92;13.93;;;;;;;4.21;67.29;100540.59;1088005;54;20054;-81
2022/12/01 06:04:26;;;;;;;21.52;14.48;;;;;;;4.19;67.36;100553.06;1087660;54;20030;-80
2022/12/01 06:05:30;;;;;;;20.85;14.63;;;;;;;4.24;67.29;100546.66;1087669;54;20034;-82
2022/12/01 06:06:37;;;;;;;20.88;14.75;;;;;;;4.22;67.12;100552.88;1088105;54;20038;-81
2022/12/01 06:07:39;;;;;;;20.05;14.02;;;;;;;4.21;67.47;100545.88;1090458;39;20625;-80
2022/12/01 06:08:43;;;;;;;20.50;13.63;;;;;;;4.30;67.40;100543.63;1087967;54;20029;-80
2022/12/01 06:09:45;;;;;;;19.60;13.75;;;;;;;4.27;67.37;100549.97;1088101;54;20090;-80
2022/12/01 06:10:55;;;;;;;23.55;14.88;;;;;;;4.27;67.45;100549.09;1088114;54;20034;-82
2022/12/01 06:11:57;;;;;;;21.77;14.77;;;;;;;4.22;67.87;100547.59;1088199;54;20014;-82
2022/12/01 06:13:02;;;;;;;22.08;14.75;;;;;;;4.18;67.76;100540.75;1088276;54;20011;-80
2022/12/01 06:14:06;;;;;;;21.98;15.25;;;;;;;4.22;67.87;100541.44;1097465;46;20031;-80
2022/12/01 06:15:18;;;;;;;21.38;15.90;;;;;;;4.07;67.57;100543.19;1088072;54;20031;-80
2022/12/01 06:16:22;;;;;;;22.10;14.60;;;;;;;4.04;68.04;100544.22;1088232;54;20065;-79
2022/12/01 06:17:24;;;;;;;22.13;15.38;;;;;;;4.03;68.19;100542.53;1088457;46;20037;-81
2022/12/01 06:18:29;;;;;;;23.95;16.63;;;;;;;4.12;68.11;100551.72;1088254;54;20046;-82
2022/12/01 06:19:39;;;;;;;26.98;17.58;;;;;;;4.12;68.00;100549.09;1087998;54;20038;-82
2022/12/01 06:20:43;;;;;;;28.83;19.52;;;;;;;4.17;67.88;100544.34;1088028;54;20114;-81
2022/12/01 06:21:49;;;;;;;27.33;17.42;;;;;;;4.20;67.40;100546.00;1087827;54;20022;-81
2022/12/01 06:22:53;;;;;;;26.80;17.42;;;;;;;4.16;67.69;100547.94;1087864;54;20038;-80
2022/12/01 06:24:02;;;;;;;25.50;16.70;;;;;;;4.13;67.49;100552.56;1087975;54;20736;-82
2022/12/01 06:25:07;;;;;;;22.90;14.82;;;;;;;4.16;67.94;100544.47;1087984;54;20035;-82
2022/12/01 06:26:09;;;;;;;22.38;15.80;;;;;;;4.16;67.81;100549.75;1088064;54;20038;-81
2022/12/01 06:27:13;;;;;;;21.05;14.55;;;;;;;4.16;67.79;100547.94;1087995;54;20057;-80
2022/12/01 06:28:18;;;;;;;23.60;15.50;;;;;;;4.18;67.67;100553.16;1087962;54;20035;-81
2022/12/01 06:29:19;;;;;;;19.77;13.68;;;;;;;4.20;67.79;100553.94;1087742;54;20035;-81
2022/12/01 06:30:32;;;;;;;21.85;15.05;;;;;;;4.22;67.69;100568.78;1087763;54;20030;-82
2022/12/01 06:31:33;;;;;;;24.00;14.25;;;;;;;4.25;67.30;100565.09;1087844;54;20035;-80
2022/12/01 06:32:38;;;;;;;20.95;14.57;;;;;;;4.33;67.40;100561.97;1087884;54;20030;-81
2022/12/01 06:33:40;;;;;;;21.00;15.05;;;;;;;4.33;67.30;100559.34;1087913;54;20119;-82
2022/12/01 06:34:44;;;;;;;19.50;13.55;;;;;;;4.30;67.45;100562.16;1087994;54;20031;-81
2022/12/01 06:35:46;;;;;;;20.23;14.40;;;;;;;4.26;67.18;100563.28;1088016;54;20034;-82
2022/12/01 06:36:52;;;;;;;21.27;14.60;;;;;;;4.15;66.97;100559.50;1087936;54;20033;-80
2022/12/01 06:37:54;;;;;;;21.73;14.88;;;;;;;4.10;67.37;100561.53;1087914;54;20034;-81
2022/12/01 06:38:58;;;;;;;24.48;16.60;;;;;;;4.09;67.47;100570.41;1087949;54;20030;-83
2022/12/01 06:40:00;;;;;;;21.75;14.52;;;;;;;4.08;67.62;100559.94;1088394;39;20625;-83
2022/12/01 06:41:06;;;;;;;23.35;15.65;;;;;;;4.04;67.67;100564.56;1087932;54;20037;-80
2022/12/01 06:42:10;;;;;;;19.80;14.75;;;;;;;4.01;67.82;100564.72;1088527;46;20061;-82
2022/12/01 06:43:14;;;;;;;22.40;15.93;;;;;;;4.03;67.73;100563.69;1092452;39;20709;-81
2022/12/01 06:44:18;;;;;;;22.23;15.45;;;;;;;4.05;67.62;100560.97;1087999;54;20030;-81
2022/12/01 06:45:20;;;;;;;26.80;15.52;;;;;;;4.02;67.78;100561.97;1087887;54;20034;-81
2022/12/01 06:46:24;;;;;;;21.55;15.13;;;;;;;4.07;67.40;100559.06;1088004;54;20075;-80
2022/12/01 06:47:30;;;;;;;23.60;16.08;;;;;;;3.99;67.55;100556.03;1087951;54;20031;-79
2022/12/01 06:48:33;;;;;;;23.05;15.30;;;;;;;4.00;67.79;100563.91;1087955;54;20030;-82
2022/12/01 06:49:41;;;;;;;22.02;15.55;;;;;;;3.99;67.65;100562.19;1087980;54;20078;-79
2022/12/01 06:50:43;;;;;;;22.50;15.30;;;;;;;3.95;68.09;100559.81;1088049;54;20069;-83
2022/12/01 06:52:00;;;;;;;21.00;14.52;;;;;;;4.01;67.87;100565.59;1089855;39;20894;-81
2022/12/01 06:53:02;;;;;;;24.48;15.73;;;;;;;4.03;67.69;100568.97;1090340;46;20079;-81
2022/12/01 06:54:07;;;;;;;23.58;14.60;;;;;;;4.04;67.70;100567.22;1087977;54;20039;-80
2022/12/01 06:55:09;;;;;;;22.52;15.73;;;;;;;4.03;67.63;100562.84;1087920;54;20038;-81
2022/12/01 06:56:13;;;;;;;21.63;15.10;;;;;;;3.95;67.94;100560.66;1097474;39;20748;-80
2022/12/01 06:57:18;;;;;;;22.23;14.57;;;;;;;3.99;67.85;100564.84;1088004;54;20031;-81
2022/12/01 06:58:20;;;;;;;22.23;15.73;;;;;;;4.03;67.90;100562.84;1087961;54;20038;-83
2022/12/01 06:59:25;;;;;;;23.30;15.13;;;;;;;4.01;68.05;100568.25;1087957;54;20014;-81
2022/12/01 07:00:27;;;;;;;26.88;16.25;;;;;;;3.96;68.20;100566.81;1087900;54;20065;-81
2022/12/01 07:01:31;;;;;;;22.63;15.95;;;;;;;3.97;67.99;100569.34;1087931;54;20031;-80
2022/12/01 07:02:35;;;;;;;21.55;14.68;;;;;;;4.00;67.75;100568.31;1088087;54;20030;-82
2022/12/01 07:03:39;;;;;;;23.55;14.68;;;;;;;4.08;67.72;100574.00;1088063;54;20032;-81
2022/12/01 07:04:47;;;;;;;18.77;13.38;;;;;;;4.14;67.37;100571.03;1087938;54;20038;-81
2022/12/01 07:05:57;;;;;;;22.58;15.38;;;;;;;4.07;67.57;100567.00;1087757;54;20034;-82
2022/12/01 07:07:10;;;;;;;22.48;15.20;;;;;;;4.04;67.88;100568.03;1088179;54;20057;-81
2022/12/01 07:08:11;;;;;;;24.08;15.60;;;;;;;3.97;67.93;100571.16;1088016;54;20045;-80
2022/12/01 07:09:15;;;;;;;21.80;15.52;;;;;;;3.92;68.02;100559.97;1088068;54;20019;-83
2022/12/01 07:10:47;;;;;;;21.95;15.55;;;;;;;3.89;67.86;100567.16;1088073;54;20030;-80
2022/12/01 07:11:49;;;;;;;23.23;15.68;;;;;;;3.88;68.31;100575.19;1087915;54;20479;-82
2022/12/01 07:12:57;;;;;;;22.77;14.43;;;;;;;3.91;68.22;100569.72;1088067;54;20057;-81
2022/12/01 07:13:59;;;;;;;25.50;15.75;;;;;;;3.89;68.21;100576.88;1087992;54;20058;-81
2022/12/01 07:15:03;;;;;;;23.88;16.75;;;;;;;3.85;68.24;100565.63;1088031;54;20042;-81
2022/12/01 07:16:06;;;;;;;23.08;15.75;;;;;;;3.89;68.15;100572.44;1088006;54;20778;-81
2022/12/01 07:17:10;;;;;;;21.90;15.50;;;;;;;3.94;68.00;100573.97;1088012;54;20015;-83
2022/12/01 07:18:12;;;;;;;21.65;15.50;;;;;;;3.95;68.05;100576.53;1088063;54;20049;-82
2022/12/01 07:19:17;;;;;;;22.80;15.75;;;;;;;3.96;68.08;100580.03;1087898;54;20774;-81
2022/12/01 07:20:21;;;;;;;22.13;16.02;;;;;;;3.94;68.30;100576.63;1088016;54;20054;-82
2022/12/01 07:21:23;;;;;;;21.40;14.73;;;;;;;3.95;68.34;100570.41;1087880;54;20046;-81
2022/12/01 07:22:31;;;;;;;24.20;16.05;;;;;;;3.97;68.02;100576.44;1087997;54;20832;-80
2022/12/01 07:23:33;;;;;;;21.38;14.45;;;;;;;4.05;67.69;100571.56;1087838;54;20742;-81
2022/12/01 07:24:37;;;;;;;22.08;15.10;;;;;;;4.07;67.91;100580.25;1087943;54;20031;-81
2022/12/01 07:25:39;;;;;;;22.50;15.38;;;;;;;4.09;67.63;100581.00;1087936;54;20038;-81
2022/12/01 07:26:49;;;;;;;22.88;15.18;;;;;;;4.10;67.46;100590.66;1092994;39;20649;-81
2022/12/01 07:27:53;;;;;;;22.63;14.93;;;;;;;3.99;67.70;100582.47;1087945;54;20034;-81
2022/12/01 07:28:56;;;;;;;23.77;16.08;;;;;;;3.98;68.07;100589.59;1088015;54;21070;-82
2022/12/01 07:30:00;;;;;;;20.52;14.55;;;;;;;3.95;67.88;100589.75;1087973;54;20042;-80
2022/12/01 07:31:10;;;;;;;24.35;16.63;;;;;;;3.95;67.72;100592.41;1087886;54;20019;-82
2022/12/01 07:32:15;;;;;;;21.55;14.48;;;;;;;4.00;67.95;100594.78;1088084;54;20022;-81
2022/12/01 07:33:16;;;;;;;25.25;16.58;;;;;;;3.93;67.86;100588.13;1087967;54;20038;-82
2022/12/01 07:34:21;;;;;;;22.15;15.05;;;;;;;4.05;67.89;100598.84;1087942;54;20015;-82
2022/12/01 07:35:22;;;;;;;22.35;14.23;;;;;;;4.08;67.58;100591.69;1089889;47;20037;-81
2022/12/01 07:36:27;;;;;;;21.25;14.70;;;;;;;4.11;67.52;100597.66;1087870;54;20900;-81
2022/12/01 07:37:31;;;;;;;21.42;14.63;;;;;;;4.11;67.55;100602.94;1087953;54;20030;-81
2022/12/01 07:38:37;;;;;;;23.95;14.82;;;;;;;4.07;67.52;100596.13;1087934;54;20038;-82
2022/12/01 07:39:41;;;;;;;21.27;14.45;;;;;;;4.14;67.72;100591.31;1088823;39;21024;-82
2022/12/01 07:40:46;;;;;;;24.70;15.88;;;;;;;4.14;67.56;100597.47;1091468;39;20701;-80
2022/12/01 07:41:48;;;;;;;21.42;14.15;;;;;;;4.14;67.48;100586.91;1088211;54;20042;-81
2022/12/01 07:42:53;;;;;;;22.13;15.05;;;;;;;4.15;67.31;100599.19;1088415;54;20099;-81
2022/12/01 07:43:58;;;;;;;27.45;16.20;;;;;;;4.08;67.30;100592.53;1088292;54;20034;-80
2022/12/01 07:44:59;;;;;;;21.40;15.00;;;;;;;4.11;67.57;100600.31;1088211;54;20034;-81
2022/12/01 07:46:09;;;;;;;22.45;14.77;;;;;;;4.13;67.41;100600.19;1088253;54;20074;-81
2022/12/01 07:47:13;;;;;;;25.92;15.50;;;;;;;4.13;67.16;100589.63;1088228;54;20031;-79
2022/12/01 07:48:21;;;;;;;21.85;14.48;;;;;;;4.21;67.15;100598.81;1088199;54;20032;-81
2022/12/01 07:49:25;;;;;;;19.70;13.70;;;;;;;4.25;67.41;100596.00;1090249;39;20693;-80
2022/12/01 07:50:27;;;;;;;21.45;14.15;;;;;;;4.30;66.98;100596.56;1088264;54;20030;-81
2022/12/01 07:51:31;;;;;;;19.10;13.02;;;;;;;4.39;67.00;100596.03;1088140;54;20034;-81
2022/12/01 07:52:51;;;;;;;19.38;13.27;;;;;;;4.29;66.61;100594.88;1088263;54;20030;-82
2022/12/01 07:53:56;;;;;;;21.33;14.30;;;;;;;4.30;67.08;100596.56;1088223;54;20025;-82
2022/12/01 07:54:58;;;;;;;21.70;13.98;;;;;;;4.25;66.98;100594.19;1088244;54;20038;-81
2022/12/01 07:56:09;;;;;;;39.83;15.52;;;;;;;4.26;66.79;100593.25;1088318;54;20062;-81
2022/12/01 07:57:14;;;;;;;23.05;14.82;;;;;;;4.27;67.26;100597.59;1088331;54;20098;-81
2022/12/01 07:58:16;;;;;;;20.13;13.80;;;;;;;4.36;67.11;100593.53;1088262;54;20035;-81
2022/12/01 07:59:28;;;;;;;22.05;14.50;;;;;;;4.31;67.01;100592.97;1088184;54;20014;-81
2022/12/01 08:00:30;;;;;;;21.30;14.43;;;;;;;4.16;66.89;100600.88;1088340;54;20054;-82
2022/12/01 08:01:36;;;;;;;20.92;14.10;;;;;;;4.23;66.72;100596.06;1088352;54;20031;-81
2022/12/01 08:02:38;;;;;;;20.45;14.32;;;;;;;4.24;67.01;100594.28;1088344;54;20030;-81
2022/12/01 08:03:44;;;;;;;22.38;15.60;;;;;;;4.21;67.04;100601.47;1088372;54;20069;-84
2022/12/01 08:04:48;;;;;;;20.83;14.82;;;;;;;4.16;67.32;100590.28;1088344;54;20030;-82
2022/12/01 08:05:56;;;;;;;19.88;13.90;;;;;;;4.09;66.78;100594.25;1088189;54;20062;-81
2022/12/01 08:07:00;;;;;;;22.20;15.27;;;;;;;4.11;67.11;100599.47;1088323;54;20034;-81
2022/12/01 08:08:04;;;;;;;19.50;13.90;;;;;;;4.19;67.20;100595.41;1088276;54;20074;-83
2022/12/01 08:09:09;;;;;;;20.40;13.88;;;;;;;4.20;67.02;100591.81;1088273;54;20038;-81
2022/12/01 08:10:16;;;;;;;20.95;14.95;;;;;;;4.20;67.10;100599.75;1094484;46;20019;-83
2022/12/01 08:11:22;;;;;;;19.55;14.00;;;;;;;4.28;66.93;100599.31;1088277;54;20023;-83
2022/12/01 08:12:27;;;;;;;18.73;13.07;;;;;;;4.21;67.03;100612.06;1088203;54;20050;-82
2022/12/01 08:13:29;;;;;;;20.67;14.30;;;;;;;4.26;67.12;100606.50;1088244;54;20041;-81
2022/12/01 08:14:33;;;;;;;21.08;14.32;;;;;;;4.27;66.85;100617.91;1102601;39;20601;-81
2022/12/01 08:15:39;;;;;;;20.73;13.70;;;;;;;4.27;67.06;100607.31;1089948;46;20039;-83
2022/12/01 08:16:43;;;;;;;19.30;13.27;;;;;;;4.29;66.68;100608.09;1088289;54;20010;-83
2022/12/01 08:17:46;;;;;;;22.42;14.57;;;;;;;4.25;66.92;100614.53;1088316;54;20022;-82
2022/12/01 08:18:51;;;;;;;18.58;13.40;;;;;;;4.15;67.01;100614.19;1088134;54;20030;-80
2022/12/01 08:19:56;;;;;;;23.25;15.18;;;;;;;4.13;67.04;100614.31;1088133;54;20010;-82
2022/12/01 08:21:00;;;;;;;20.02;13.90;;;;;;;4.12;67.15;100607.31;1088252;54;20041;-82
2022/12/01 08:22:03;;;;;;;19.92;13.10;;;;;;;4.11;67.26;100613.53;1088191;54;20034;-82
2022/12/01 08:23:10;;;;;;;19.00;13.68;;;;;;;4.12;67.33;100606.44;1091820;39;20743;-83
2022/12/01 08:24:12;;;;;;;21.60;14.18;;;;;;;4.15;67.40;100604.47;1088255;54;20725;-79
2022/12/01 08:25:17;;;;;;;21.20;14.05;;;;;;;4.20;67.44;100607.69;1089142;39;20264;-82
2022/12/01 08:26:19;;;;;;;22.45;14.82;;;;;;;4.17;67.48;100609.69;1088315;54;20086;-81
2022/12/01 08:27:26;;;;;;;21.15;14.23;;;;;;;4.17;67.25;100607.88;1088226;54;20053;-83
2022/12/01 08:28:29;;;;;;;19.70;13.50;;;;;;;4.24;67.38;100597.78;1092173;39;20674;-81
2022/12/01 08:29:40;;;;;;;20.10;13.80;;;;;;;4.29;67.15;100600.16;1088167;54;20082;-82
2022/12/01 08:30:41;;;;;;;20.85;13.32;;;;;;;4.21;67.19;100601.47;1088258;54;20059;-81
2022/12/01 08:31:46;;;;;;;21.35;13.77;;;;;;;4.28;67.38;100603.75;1088238;54;20053;-81
2022/12/01 08:32:47;;;;;;;22.30;14.35;;;;;;;4.33;67.30;100607.00;1088199;54;20031;-81
2022/12/01 08:33:52;;;;;;;20.30;13.75;;;;;;;4.27;67.26;100597.59;1088165;54;20033;-81
2022/12/01 08:34:54;;;;;;;19.70;13.93;;;;;;;4.36;66.95;100607.66;1088229;54;20066;-82
2022/12/01 08:36:03;;;;;;;19.10;13.27;;;;;;;4.44;66.69;100604.53;1088167;54;20018;-83
2022/12/01 08:37:07;;;;;;;21.50;13.70;;;;;;;4.48;66.76;100611.34;1088170;54;20038;-81
2022/12/01 08:38:16;;;;;;;19.20;13.63;;;;;;;4.45;66.91;100616.00;1088183;54;20030;-81
2022/12/01 08:39:20;;;;;;;20.17;13.30;;;;;;;4.45;66.77;100610.69;1088220;54;20030;-80
2022/12/01 08:40:28;;;;;;;21.13;14.05;;;;;;;4.38;66.84;100615.50;1088212;54;20030;-80
2022/12/01 08:41:33;;;;;;;19.55;13.32;;;;;;;4.39;67.03;100611.91;1088086;54;20046;-82
2022/12/01 08:42:37;;;;;;;22.05;15.43;;;;;;;4.39;66.80;100614.56;1088230;54;20030;-82
2022/12/01 08:43:43;;;;;;;19.75;13.30;;;;;;;4.33;66.87;100612.28;1088129;54;20094;-82
2022/12/01 08:44:47;;;;;;;21.05;14.38;;;;;;;4.29;67.26;100613.38;1088134;54;20034;-82
2022/12/01 08:45:53;;;;;;;21.35;14.65;;;;;;;4.28;67.21;100614.34;1088163;54;20030;-81
2022/12/01 08:46:57;;;;;;;22.00;14.73;;;;;;;4.34;67.11;100611.34;1088182;54;20030;-82
2022/12/01 08:48:04;;;;;;;22.67;14.95;;;;;;;4.34;66.98;100608.69;1088128;54;20035;-82
2022/12/01 08:49:09;;;;;;;21.15;13.82;;;;;;;4.32;67.20;100608.75;1089129;46;20034;-82
2022/12/01 08:50:12;;;;;;;19.65;13.80;;;;;;;4.35;66.99;100613.03;1088106;54;20034;-81
2022/12/01 08:51:18;;;;;;;20.88;14.48;;;;;;;4.28;67.19;100609.03;1088165;54;20078;-81
2022/12/01 08:52:22;;;;;;;19.17;13.38;;;;;;;4.33;67.29;100612.28;1091125;39;20613;-83
2022/12/01 08:53:42;;;;;;;19.90;13.65;;;;;;;4.30;67.69;100609.81;1088137;54;20034;-80
2022/12/01 08:54:46;;;;;;;18.73;13.50;;;;;;;4.37;67.22;100608.50;1088070;54;20031;-81
2022/12/01 08:55:49;;;;;;;19.80;13.75;;;;;;;4.36;67.27;100617.38;1088278;54;20030;-81
2022/12/01 08:56:53;;;;;;;22.45;14.50;;;;;;;4.39;67.29;100611.06;1088090;54;20037;-81
2022/12/01 08:57:55;;;;;;;23.15;14.18;;;;;;;4.31;67.49;100608.88;1088229;54;20022;-80
2022/12/01 08:59:00;;;;;;;20.08;13.60;;;;;;;4.37;67.66;100608.50;1088129;54;20111;-82
2022/12/01 09:00:03;;;;;;;20.92;14.57;;;;;;;4.36;67.38;100617.38;1088229;54;20033;-80
2022/12/01 09:01:14;;;;;;;21.13;14.48;;;;;;;4.34;67.39;100614.00;1088855;46;20037;-81
2022/12/01 09:02:21;;;;;;;21.58;14.57;;;;;;;4.27;67.43;100621.44;1088008;54;20035;-80
2022/12/01 09:03:25;;;;;;;22.02;14.65;;;;;;;4.27;67.79;100618.78;1092362;46;20034;-81
2022/12/01 09:04:29;;;;;;;19.67;13.93;;;;;;;4.20;67.51;100618.28;1088145;54;20026;-81